createdAt,value
2023-06-17T08:53:53.804Z,57.60
2023-06-17T08:56:20.924Z,55.10
2023-06-17T08:58:48.734Z,56.70
2023-06-17T09:01:15.805Z,57.50
2023-06-17T09:03:43.659Z,58.00
2023-06-17T09:06:29.453Z,58.20
2023-06-17T09:08:58.283Z,59.00
2023-06-17T09:11:29.916Z,56.20
2023-06-17T09:13:58.497Z,55.50
2023-06-17T09:16:35.953Z,54.50
2023-06-17T09:19:10.212Z,56.20
2023-06-17T09:21:40.433Z,56.00
2023-06-17T09:24:10.033Z,56.90
2023-06-17T09:26:41.659Z,57.10
2023-06-17T09:29:10.213Z,57.90
2023-06-17T09:31:56.220Z,56.60
2023-06-17T09:34:24.049Z,55.50
2023-06-17T09:37:01.587Z,56.60
2023-06-17T09:39:34.376Z,54.40
2023-06-17T09:42:12.065Z,54.30
2023-06-17T09:44:45.368Z,54.00
2023-06-17T09:47:13.050Z,53.70
2023-06-17T09:49:40.183Z,54.50
2023-06-17T09:52:10.505Z,52.60
2023-06-17T09:54:38.429Z,52.80
2023-06-17T09:57:10.839Z,54.30
2023-06-17T09:59:37.940Z,53.60
2023-06-17T10:02:05.295Z,53.10
2023-06-17T10:04:32.541Z,52.10
2023-06-17T10:07:01.362Z,52.00
2023-06-17T10:09:29.173Z,51.10
2023-06-17T10:12:01.041Z,51.60
2023-06-17T10:14:36.380Z,52.50
2023-06-17T10:17:06.392Z,52.80
2023-06-17T10:19:36.817Z,53.00
2023-06-17T10:22:07.382Z,52.70
2023-06-17T10:24:38.424Z,51.80
2023-06-17T10:27:07.531Z,50.70
2023-06-17T10:29:37.131Z,50.90
2023-06-17T10:32:25.653Z,50.90
2023-06-17T10:35:09.490Z,50.60
2023-06-17T10:37:48.765Z,50.40
2023-06-17T10:40:31.239Z,49.40
2023-06-17T10:43:04.125Z,50.20
2023-06-17T10:45:32.373Z,47.80
2023-06-17T10:48:28.396Z,49.10
2023-06-17T10:51:01.458Z,47.60
2023-06-17T10:53:34.067Z,48.50
2023-06-17T10:56:02.313Z,48.10
2023-06-17T10:58:34.792Z,48.30
2023-06-17T11:01:09.738Z,48.20
2023-06-17T11:03:37.425Z,48.00
2023-06-17T11:06:06.322Z,48.30
2023-06-17T11:08:35.294Z,47.90
2023-06-17T11:11:16.056Z,47.90
2023-06-17T11:13:44.812Z,46.20
2023-06-17T11:16:12.311Z,45.10
2023-06-17T11:18:41.946Z,44.90
2023-06-17T11:21:09.838Z,46.30
2023-06-17T11:23:41.388Z,47.40
2023-06-17T11:26:09.120Z,44.30
2023-06-17T11:28:36.983Z,45.00
2023-06-17T11:31:04.602Z,42.70
2023-06-17T11:33:35.460Z,42.00
2023-06-17T11:36:04.654Z,43.60
2023-06-17T11:38:34.990Z,44.00
2023-06-17T11:41:02.562Z,44.20
2023-06-17T11:43:30.030Z,44.50
2023-06-17T11:45:57.639Z,43.20
2023-06-17T11:48:29.031Z,42.80
2023-06-17T11:51:01.518Z,41.90
2023-06-17T11:53:49.528Z,45.40
2023-06-17T11:56:23.175Z,42.50
2023-06-17T11:58:53.757Z,43.80
2023-06-17T12:01:25.827Z,44.50
2023-06-17T12:03:56.129Z,45.60
2023-06-17T12:06:23.467Z,43.20
2023-06-17T12:09:01.432Z,42.00
2023-06-17T12:11:31.689Z,41.90
2023-06-17T12:13:59.910Z,42.20
2023-06-17T12:16:34.799Z,45.40
2023-06-17T12:19:02.860Z,42.80
2023-06-17T12:21:30.205Z,44.10
2023-06-17T12:23:57.778Z,43.00
2023-06-17T12:26:25.286Z,42.00
2023-06-17T12:28:53.119Z,42.20
2023-06-17T12:31:21.062Z,42.20
2023-06-17T12:33:48.126Z,42.90
2023-06-17T12:36:16.768Z,42.50
2023-06-17T12:38:45.618Z,44.10
2023-06-17T12:41:12.979Z,43.30
2023-06-17T12:43:40.780Z,42.60
2023-06-17T12:46:11.100Z,41.70
2023-06-17T12:48:38.262Z,42.60
2023-06-17T12:51:05.222Z,44.90
2023-06-17T12:53:32.186Z,41.40
2023-06-17T12:55:59.768Z,42.90
2023-06-17T12:58:27.250Z,44.10
2023-06-17T13:00:54.906Z,43.90
2023-06-17T13:03:25.379Z,42.40
2023-06-17T13:05:54.986Z,42.00
2023-06-17T13:08:22.001Z,43.90
2023-06-17T13:10:48.976Z,43.20
2023-06-17T13:13:15.967Z,43.60
2023-06-17T13:15:42.990Z,42.50
2023-06-17T13:18:09.939Z,40.90
2023-06-17T13:20:37.158Z,39.80
2023-06-17T13:23:05.627Z,41.60
2023-06-17T13:25:32.679Z,42.20
2023-06-17T13:27:59.725Z,43.20
2023-06-17T13:30:26.931Z,42.90
2023-06-17T13:32:53.844Z,43.20
2023-06-17T13:35:21.242Z,42.90
2023-06-17T13:37:48.554Z,43.10
2023-06-17T13:40:16.326Z,42.50
2023-06-17T13:42:43.240Z,41.80
2023-06-17T13:45:13.838Z,42.70
2023-06-17T13:47:42.609Z,43.00
2023-06-17T13:50:10.384Z,42.90
2023-06-17T13:52:37.703Z,41.70
2023-06-17T13:55:05.271Z,42.80
2023-06-17T13:57:32.274Z,41.60
2023-06-17T13:59:59.219Z,41.10
2023-06-17T14:02:26.354Z,42.60
2023-06-17T14:04:53.692Z,43.60
2023-06-17T14:07:20.797Z,42.40
2023-06-17T14:09:47.862Z,41.40
2023-06-17T14:12:14.787Z,43.10
2023-06-17T14:14:46.050Z,40.60
2023-06-17T14:17:13.679Z,40.70
2023-06-17T14:19:40.647Z,45.00
2023-06-17T14:22:07.931Z,43.80
2023-06-17T14:24:38.295Z,44.90
2023-06-17T14:27:16.217Z,41.70
2023-06-17T14:29:43.248Z,42.10
2023-06-17T14:32:10.143Z,42.50
2023-06-17T14:34:37.110Z,44.30
2023-06-17T14:37:04.191Z,45.80
2023-06-17T14:39:34.195Z,43.50
2023-06-17T14:42:01.324Z,43.50
2023-06-17T14:44:28.695Z,42.90
2023-06-17T14:46:56.307Z,44.30
2023-06-17T14:49:23.264Z,43.30
2023-06-17T14:51:51.700Z,43.10
2023-06-17T14:54:19.099Z,43.70
2023-06-17T14:56:46.471Z,43.70
2023-06-17T14:59:13.466Z,43.50
2023-06-17T15:01:40.649Z,44.00
2023-06-17T15:04:07.913Z,44.50
2023-06-17T15:06:35.668Z,43.60
2023-06-17T15:09:25.997Z,44.30
2023-06-17T15:11:54.452Z,43.50
2023-06-17T15:14:21.914Z,44.80
2023-06-17T15:16:49.927Z,44.70
2023-06-17T15:19:17.659Z,43.60
2023-06-17T15:21:44.793Z,43.50
2023-06-17T15:24:12.430Z,43.50
2023-06-17T15:26:39.695Z,43.70
2023-06-17T15:29:07.506Z,42.90
2023-06-17T15:31:35.094Z,42.80
2023-06-17T15:34:02.132Z,43.10
2023-06-17T15:36:32.278Z,42.70
2023-06-17T15:39:01.457Z,41.80
2023-06-17T15:41:28.486Z,43.50
2023-06-17T15:43:56.438Z,42.70
2023-06-17T15:46:23.365Z,42.60
2023-06-17T15:48:51.382Z,42.50
2023-06-17T15:51:18.438Z,42.20
2023-06-17T15:53:45.289Z,44.40
2023-06-17T15:56:12.176Z,45.20
2023-06-17T15:58:39.066Z,45.80
2023-06-17T16:01:08.616Z,44.40
2023-06-17T16:03:40.071Z,44.70
2023-06-17T16:06:07.387Z,45.40
2023-06-17T16:08:34.265Z,45.40
2023-06-17T16:11:01.754Z,45.00
2023-06-17T16:13:28.836Z,45.30
2023-06-17T16:15:56.033Z,45.30
2023-06-17T16:18:23.254Z,46.30
2023-06-17T16:20:50.678Z,46.60
2023-06-17T16:23:17.805Z,47.10
2023-06-17T16:25:54.798Z,45.80
2023-06-17T16:28:23.131Z,45.10
2023-06-17T16:30:50.159Z,46.00
2023-06-17T16:33:17.052Z,46.60
2023-06-17T16:35:43.960Z,45.80
2023-06-17T16:38:11.079Z,44.90
2023-06-17T16:40:37.983Z,45.20
2023-06-17T16:43:04.844Z,46.70
2023-06-17T16:45:31.774Z,46.30
2023-06-17T16:47:58.710Z,48.70
2023-06-17T16:50:25.647Z,48.00
2023-06-17T16:52:52.545Z,47.60
2023-06-17T16:55:19.826Z,50.80
2023-06-17T16:57:46.795Z,48.30
2023-06-17T17:00:13.917Z,49.40
2023-06-17T17:02:43.749Z,46.90
2023-06-17T17:05:10.749Z,48.50
2023-06-17T17:07:37.777Z,49.60
2023-06-17T17:10:05.095Z,48.50
2023-06-17T17:12:31.908Z,49.20
2023-06-17T17:14:58.810Z,50.00
2023-06-17T17:17:25.888Z,47.20
2023-06-17T17:19:54.481Z,48.70
2023-06-17T17:22:21.572Z,48.80
2023-06-17T17:24:48.465Z,49.70
2023-06-17T17:27:15.602Z,48.80
2023-06-17T17:29:42.568Z,49.20
2023-06-17T17:32:09.586Z,51.30
2023-06-17T17:34:36.564Z,49.80
2023-06-17T17:37:03.641Z,51.10
2023-06-17T17:39:30.533Z,49.30
2023-06-17T17:41:57.465Z,48.20
2023-06-17T17:44:24.329Z,48.50
2023-06-17T17:46:51.365Z,47.10
2023-06-17T17:49:18.209Z,49.90
2023-06-17T17:51:45.138Z,51.30
2023-06-17T17:54:12.673Z,50.80
2023-06-17T17:56:39.542Z,50.30
2023-06-17T17:59:06.554Z,51.20
2023-06-17T18:01:33.529Z,51.40
2023-06-17T18:04:00.495Z,51.50
2023-06-17T18:06:30.362Z,55.10
2023-06-17T18:08:59.115Z,54.60
2023-06-17T18:11:26.098Z,56.90
2023-06-17T18:13:54.804Z,56.20
2023-06-17T18:16:23.268Z,57.10
2023-06-17T18:18:50.915Z,56.70
2023-06-17T18:21:18.469Z,56.80
2023-06-17T18:23:45.670Z,57.70
2023-06-17T18:26:12.548Z,58.30
2023-06-17T18:28:39.591Z,58.80
2023-06-17T18:31:06.674Z,57.70
2023-06-17T18:33:33.582Z,58.00
2023-06-17T18:36:00.569Z,57.30
2023-06-17T18:38:27.432Z,56.80
2023-06-17T18:40:57.135Z,57.20
2023-06-17T18:43:24.060Z,57.10
2023-06-17T18:45:50.950Z,58.50
2023-06-17T18:48:20.824Z,60.20
2023-06-17T18:50:48.417Z,58.70
2023-06-17T18:53:15.579Z,58.00
2023-06-17T18:55:43.144Z,57.90
2023-06-17T18:58:10.307Z,58.70
2023-06-17T19:00:37.904Z,59.50
2023-06-17T19:03:05.175Z,60.50
2023-06-17T19:05:32.164Z,61.30
2023-06-17T19:07:59.304Z,62.00
2023-06-17T19:10:26.248Z,62.10
2023-06-17T19:12:53.192Z,62.80
2023-06-17T19:15:21.769Z,63.30
2023-06-17T19:17:57.888Z,63.20
2023-06-17T19:20:26.021Z,63.00
2023-06-17T19:22:52.993Z,64.00
2023-06-17T19:25:19.999Z,64.50
2023-06-17T19:27:46.870Z,63.30
2023-06-17T19:30:16.647Z,63.80
2023-06-17T19:32:43.640Z,64.30
2023-06-17T19:35:10.569Z,63.00
2023-06-17T19:37:37.716Z,63.40
2023-06-17T19:40:08.299Z,64.40
